createdAt,value
2019-06-10T00:05:30.500Z,7.33
2019-06-10T00:12:15.535Z,6.53
2019-06-10T00:19:02.905Z,6.10
2019-06-10T00:25:47.110Z,7.90
2019-06-10T00:32:32.158Z,3.90
2019-06-10T00:39:17.095Z,4.80
2019-06-10T00:46:04.153Z,6.17
2019-06-10T00:52:48.507Z,4.23
2019-06-10T00:59:33.363Z,4.75
2019-06-10T01:06:18.215Z,5.87
2019-06-10T01:13:03.444Z,4.30
2019-06-10T01:19:50.778Z,5.50
2019-06-10T01:26:35.079Z,7.03
2019-06-10T01:33:21.238Z,5.97
2019-06-10T01:40:07.951Z,6.90
2019-06-10T01:46:52.968Z,8.17
2019-06-10T01:53:38.039Z,4.42
2019-06-10T02:00:26.105Z,6.47
2019-06-10T02:07:13.849Z,6.43
2019-06-10T02:13:57.715Z,6.10
2019-06-10T02:20:42.580Z,5.50
2019-06-10T02:27:27.638Z,5.37
2019-06-10T02:34:17.157Z,6.93
2019-06-10T02:40:59.166Z,7.00
2019-06-10T02:47:45.172Z,6.33
2019-06-10T02:54:32.689Z,7.23
2019-06-10T03:01:18.828Z,6.43
2019-06-10T03:08:03.840Z,7.57
2019-06-10T03:14:52.607Z,9.63
2019-06-10T03:21:37.755Z,7.67
2019-06-10T03:28:24.201Z,7.07
2019-06-10T03:35:12.950Z,5.37
2019-06-10T03:41:56.219Z,6.87
2019-06-10T03:48:43.264Z,5.43
2019-06-10T03:55:29.096Z,6.07
2019-06-10T04:02:14.539Z,5.47
2019-06-10T04:08:59.635Z,6.10
2019-06-10T04:15:44.515Z,8.50
2019-06-10T04:22:29.378Z,7.03
2019-06-10T04:29:14.225Z,7.00
2019-06-10T04:35:59.192Z,8.40
2019-06-10T04:42:44.115Z,6.27
2019-06-10T04:49:29.830Z,6.10
2019-06-10T04:56:14.820Z,6.50
2019-06-10T05:02:59.682Z,8.17
2019-06-10T05:09:44.607Z,7.47
2019-06-10T05:16:32.195Z,5.90
2019-06-10T05:23:16.028Z,6.63
2019-06-10T05:30:02.326Z,6.42
2019-06-10T05:36:47.423Z,6.40
2019-06-10T05:43:34.291Z,8.57
2019-06-10T05:50:19.087Z,6.47
2019-06-10T05:57:04.145Z,8.87
2019-06-10T06:03:49.063Z,8.90
2019-06-10T06:10:36.004Z,7.07
2019-06-10T06:17:23.442Z,6.45
2019-06-10T06:24:07.691Z,6.92
2019-06-10T06:30:52.855Z,6.55
2019-06-10T06:37:39.500Z,6.53
2019-06-10T06:44:24.630Z,4.70
2019-06-10T06:51:09.498Z,5.97
2019-06-10T06:57:54.356Z,6.07
2019-06-10T07:04:40.391Z,13.15
2019-06-10T07:11:26.695Z,4.28
2019-06-10T07:18:12.998Z,7.17
2019-06-10T07:24:58.875Z,7.37
2019-06-10T07:31:46.659Z,5.33
2019-06-10T07:38:33.191Z,3.83
2019-06-10T07:45:18.007Z,6.85
2019-06-10T07:52:12.942Z,5.97
2019-06-10T07:58:49.479Z,6.47
2019-06-10T08:05:35.942Z,4.90
2019-06-10T08:12:23.114Z,6.65
2019-06-10T08:19:26.339Z,4.28
2019-06-10T08:25:57.607Z,6.20
2019-06-10T08:32:45.261Z,5.15
2019-06-10T08:39:28.397Z,7.20
2019-06-10T08:46:13.393Z,3.52
2019-06-10T08:53:12.760Z,4.70
2019-06-10T08:59:47.680Z,6.53
2019-06-10T09:06:32.994Z,6.20
2019-06-10T09:13:18.206Z,7.03
2019-06-10T09:20:05.229Z,5.33
2019-06-10T09:26:51.486Z,6.65
2019-06-10T09:33:36.703Z,5.80
2019-06-10T09:40:22.912Z,4.08
2019-06-10T09:47:08.514Z,5.33
2019-06-10T09:54:02.417Z,5.25
2019-06-10T10:00:49.385Z,3.98
2019-06-10T10:07:32.794Z,6.87
2019-06-10T10:14:18.708Z,5.20
2019-06-10T10:21:04.074Z,4.85
2019-06-10T10:27:51.330Z,3.47
2019-06-10T10:34:35.835Z,5.62
2019-06-10T10:41:23.234Z,5.05
2019-06-10T10:48:07.560Z,3.67
2019-06-10T10:54:54.301Z,3.40
2019-06-10T11:01:39.192Z,5.97
2019-06-10T11:08:24.046Z,4.85
2019-06-10T11:15:10.439Z,5.87
2019-06-10T11:21:55.299Z,3.85
2019-06-10T11:28:42.368Z,4.25
2019-06-10T11:35:28.233Z,4.80
2019-06-10T11:42:13.374Z,8.15
2019-06-10T11:48:59.110Z,6.17
2019-06-10T11:55:45.191Z,5.95
2019-06-10T12:02:30.124Z,5.78
2019-06-10T12:09:15.771Z,5.37
2019-06-10T12:17:05.785Z,8.15
2019-06-10T12:22:49.525Z,5.78
2019-06-10T12:29:33.962Z,5.85
2019-06-10T12:36:18.964Z,5.40
2019-06-10T12:43:06.788Z,6.25
2019-06-10T12:49:52.378Z,5.45
2019-06-10T12:56:37.217Z,4.07
2019-06-10T13:03:23.656Z,6.08
2019-06-10T13:10:12.112Z,5.50
2019-06-10T13:16:57.962Z,5.40
2019-06-10T13:23:43.623Z,9.25
2019-06-10T13:30:28.575Z,5.08
2019-06-10T13:37:16.119Z,10.10
2019-06-10T13:44:02.016Z,3.45
2019-06-10T13:50:47.430Z,7.28
2019-06-10T13:57:32.295Z,6.42
2019-06-10T14:04:21.814Z,4.20
2019-06-10T14:11:07.297Z,9.28
2019-06-10T14:17:52.706Z,5.65
2019-06-10T14:24:37.794Z,8.58
2019-06-10T14:31:39.069Z,3.77
2019-06-10T14:38:10.133Z,3.22
2019-06-10T14:44:57.110Z,8.80
2019-06-10T14:51:43.111Z,6.55
2019-06-10T14:58:28.158Z,6.12
2019-06-10T15:05:15.656Z,8.63
2019-06-10T15:12:02.671Z,5.22
2019-06-10T15:18:46.847Z,8.13
2019-06-10T15:25:48.631Z,8.35
2019-06-10T15:32:32.627Z,9.18
2019-06-10T15:39:08.921Z,5.70
2019-06-10T15:45:53.935Z,6.03
2019-06-10T15:52:38.796Z,8.55
2019-06-10T15:59:23.651Z,6.17
2019-06-10T16:06:08.523Z,5.42
2019-06-10T16:12:53.383Z,7.05
2019-06-10T16:19:38.252Z,5.08
2019-06-10T16:26:26.978Z,6.42
2019-06-10T16:33:13.189Z,7.58
2019-06-10T16:39:58.451Z,6.87
2019-06-10T16:46:44.434Z,9.13
2019-06-10T16:53:32.243Z,6.17
2019-06-10T17:00:18.390Z,7.03
2019-06-10T17:07:03.428Z,6.92
2019-06-10T17:13:49.356Z,8.25
2019-06-10T17:20:34.748Z,6.70
2019-06-10T17:27:22.293Z,7.33
2019-06-10T17:34:08.375Z,5.72
2019-06-10T17:40:53.373Z,5.58
2019-06-10T17:47:38.382Z,5.62
2019-06-10T17:54:24.079Z,9.83
2019-06-10T18:01:09.865Z,7.62
2019-06-10T18:07:54.805Z,8.95
2019-06-10T18:14:39.735Z,6.62
2019-06-10T18:21:24.594Z,8.38
2019-06-10T18:28:11.977Z,8.00
2019-06-10T18:34:56.748Z,8.38
2019-06-10T18:41:42.199Z,10.72
2019-06-10T18:48:29.031Z,11.48
2019-06-10T18:55:15.824Z,7.85
2019-06-10T19:02:05.980Z,9.13
2019-06-10T19:08:47.670Z,9.13
2019-06-10T19:15:33.625Z,11.73
2019-06-10T19:22:18.666Z,9.68
2019-06-10T19:29:03.909Z,11.12
2019-06-10T19:35:48.883Z,9.68
2019-06-10T19:42:35.376Z,10.05
2019-06-10T19:49:20.386Z,13.23
2019-06-10T19:56:05.316Z,8.65
2019-06-10T20:02:52.328Z,11.27
2019-06-10T20:09:38.036Z,12.20
2019-06-10T20:16:22.986Z,9.23
2019-06-10T20:23:08.927Z,11.05
2019-06-10T20:30:07.161Z,11.78
2019-06-10T20:36:43.775Z,12.17
2019-06-10T20:43:28.332Z,23.62
2019-06-10T20:50:14.071Z,8.37
2019-06-10T20:56:59.004Z,11.95
2019-06-10T21:03:47.040Z,9.08
2019-06-10T21:10:39.641Z,10.00
2019-06-10T21:17:24.778Z,10.05
2019-06-10T21:24:09.721Z,11.25
2019-06-10T21:30:58.677Z,17.37
2019-06-10T21:37:44.875Z,15.87
2019-06-10T21:44:28.157Z,12.07
2019-06-10T21:51:13.096Z,16.07
2019-06-10T21:58:03.643Z,16.57
2019-06-10T22:04:49.421Z,13.77
2019-06-10T22:11:34.338Z,17.87
2019-06-10T22:18:22.949Z,17.00
2019-06-10T22:25:08.910Z,13.83
2019-06-10T22:31:55.299Z,13.90
2019-06-10T22:38:41.661Z,15.80
2019-06-10T22:45:26.869Z,14.53
2019-06-10T22:52:12.600Z,15.33
2019-06-10T22:59:02.714Z,12.20
2019-06-10T23:05:48.165Z,15.13
2019-06-10T23:12:33.102Z,12.23
2019-06-10T23:19:18.043Z,13.98
2019-06-10T23:26:03.169Z,12.63
2019-06-10T23:32:48.126Z,10.97
2019-06-10T23:39:33.648Z,11.63
2019-06-10T23:46:18.759Z,10.17
2019-06-10T23:53:07.591Z,15.60
2019-06-10T23:59:52.463Z,20.27
